Værinformasjon

ENOV 221020Z VRB06KT 9999 SHRA FEW021 BKN030 06/02 Q0993 RMK WIND 2175FT 31031G48KT


ENSD 221020Z 21011G21KT 140V260 9999 SHRA FEW007 SCT017 BKN030 04/02 Q0993 RMK WIND 1138FT VRB07G20KT


ENAL 221020Z 33012G25KT 300V020 9999 VCSH SCT025TCU BKN045 07/04 Q0992


ENML 221020Z 32014KT 280V360 5000 RA SCT016 BKN023 05/03 Q0989